createdAt,value
2018-11-26T00:00:58.202Z,24.85
2018-11-26T00:03:24.853Z,24.84
2018-11-26T00:05:51.495Z,24.88
2018-11-26T00:08:18.150Z,24.86
2018-11-26T00:10:44.783Z,24.87
2018-11-26T00:13:11.434Z,24.86
2018-11-26T00:15:38.183Z,24.87
2018-11-26T00:18:04.813Z,24.88
2018-11-26T00:20:31.458Z,24.92
2018-11-26T00:22:58.096Z,24.87
2018-11-26T00:25:24.728Z,24.88
2018-11-26T00:27:51.371Z,24.88
2018-11-26T00:30:19.265Z,24.87
2018-11-26T00:32:44.665Z,24.90
2018-11-26T00:35:11.312Z,24.90
2018-11-26T00:37:37.943Z,24.88
2018-11-26T00:40:04.610Z,24.90
2018-11-26T00:42:31.254Z,24.89
2018-11-26T00:44:57.895Z,24.88
2018-11-26T00:47:24.531Z,24.90
2018-11-26T00:49:51.171Z,24.87
2018-11-26T00:52:17.816Z,24.90
2018-11-26T00:54:44.457Z,24.89
2018-11-26T00:57:11.094Z,24.90
2018-11-26T00:59:37.723Z,24.90
2018-11-26T01:02:04.372Z,24.92
2018-11-26T01:04:31.028Z,24.92
2018-11-26T01:06:57.665Z,24.88
2018-11-26T01:09:24.305Z,24.88
2018-11-26T01:11:50.943Z,24.92
2018-11-26T01:14:17.589Z,24.92
2018-11-26T01:16:44.227Z,24.92
2018-11-26T01:19:10.870Z,24.90
2018-11-26T01:21:37.516Z,24.93
2018-11-26T01:24:04.159Z,24.91
2018-11-26T01:26:30.792Z,24.95
2018-11-26T01:28:57.444Z,24.96
2018-11-26T01:31:24.099Z,24.96
2018-11-26T01:33:50.726Z,24.97
2018-11-26T01:36:17.388Z,24.98
2018-11-26T01:38:44.027Z,24.97
2018-11-26T01:41:10.677Z,24.97
2018-11-26T01:43:37.315Z,25.00
2018-11-26T01:46:03.956Z,25.00
2018-11-26T01:48:30.601Z,24.97
2018-11-26T01:50:57.257Z,24.92
2018-11-26T01:53:23.910Z,24.97
2018-11-26T01:55:50.553Z,24.98
2018-11-26T01:58:17.193Z,24.96
2018-11-26T02:00:43.832Z,24.99
2018-11-26T02:03:10.470Z,24.99
2018-11-26T02:05:37.124Z,25.01
2018-11-26T02:08:03.774Z,25.02
2018-11-26T02:10:30.413Z,25.02
2018-11-26T02:12:57.151Z,25.03
2018-11-26T02:15:23.791Z,25.05
2018-11-26T02:17:50.425Z,25.02
2018-11-26T02:20:17.119Z,25.05
2018-11-26T02:22:43.712Z,25.06
2018-11-26T02:25:10.347Z,25.09
2018-11-26T02:27:37.001Z,25.08
2018-11-26T02:30:03.661Z,25.10
2018-11-26T02:32:30.298Z,25.14
2018-11-26T02:34:56.934Z,25.09
2018-11-26T02:37:23.579Z,25.13
2018-11-26T02:39:50.210Z,25.14
2018-11-26T02:42:16.860Z,25.10
2018-11-26T02:44:43.503Z,25.15
2018-11-26T02:47:10.149Z,25.17
2018-11-26T02:49:36.889Z,25.16
2018-11-26T02:52:03.554Z,25.18
2018-11-26T02:54:30.193Z,25.19
2018-11-26T02:56:56.830Z,25.19
2018-11-26T02:59:23.476Z,25.22
2018-11-26T03:01:50.116Z,25.23
2018-11-26T03:04:16.764Z,25.21
2018-11-26T03:06:43.399Z,25.27
2018-11-26T03:09:10.049Z,25.25
2018-11-26T03:11:36.695Z,25.25
2018-11-26T03:14:03.345Z,25.22
2018-11-26T03:16:29.994Z,25.29
2018-11-26T03:18:56.631Z,25.30
2018-11-26T03:21:23.269Z,25.33
2018-11-26T03:23:49.917Z,25.30
2018-11-26T03:26:16.553Z,25.29
2018-11-26T03:28:43.191Z,25.37
2018-11-26T03:31:09.823Z,25.36
2018-11-26T03:33:36.457Z,25.38
2018-11-26T03:36:03.109Z,25.39
2018-11-26T03:38:29.799Z,25.28
2018-11-26T03:40:56.442Z,25.38
2018-11-26T03:43:23.132Z,25.43
2018-11-26T03:45:49.771Z,25.34
2018-11-26T03:48:16.408Z,25.38
2018-11-26T03:50:43.047Z,25.42
2018-11-26T03:53:09.697Z,25.36
2018-11-26T03:55:36.341Z,25.44
2018-11-26T03:58:03.040Z,25.40
2018-11-26T04:00:29.680Z,25.44
2018-11-26T04:02:56.320Z,25.41
2018-11-26T04:05:22.973Z,25.42
2018-11-26T04:07:49.658Z,25.31
2018-11-26T04:10:16.297Z,25.71
2018-11-26T04:12:42.934Z,26.47
2018-11-26T04:15:09.622Z,26.76
2018-11-26T04:17:36.290Z,26.65
2018-11-26T04:20:02.918Z,26.84
2018-11-26T04:22:29.555Z,27.10
2018-11-26T04:24:56.192Z,27.68
2018-11-26T04:27:22.834Z,27.21
2018-11-26T04:29:49.472Z,27.37
2018-11-26T04:32:16.180Z,27.06
2018-11-26T04:34:42.843Z,26.85
2018-11-26T04:37:09.583Z,26.75
2018-11-26T04:39:36.285Z,27.16
2018-11-26T04:42:02.920Z,27.83
2018-11-26T04:44:29.559Z,27.97
2018-11-26T04:46:56.205Z,27.47
2018-11-26T04:49:22.849Z,27.57
2018-11-26T04:51:49.484Z,27.20
2018-11-26T04:54:16.132Z,27.12
2018-11-26T04:56:42.771Z,27.78
2018-11-26T04:59:09.463Z,26.99
2018-11-26T05:01:36.095Z,26.64
2018-11-26T05:04:02.734Z,26.70
2018-11-26T05:06:29.386Z,26.47
2018-11-26T05:08:56.076Z,26.36
2018-11-26T05:11:22.716Z,26.30
2018-11-26T05:13:49.362Z,26.10
2018-11-26T05:16:16.003Z,26.11
2018-11-26T05:18:42.705Z,25.93
2018-11-26T05:21:09.347Z,25.97
2018-11-26T05:23:35.975Z,26.04
2018-11-26T05:26:02.627Z,26.01
2018-11-26T05:28:29.275Z,26.02
2018-11-26T05:30:55.921Z,26.10
2018-11-26T05:33:22.556Z,26.01
2018-11-26T05:35:49.224Z,25.98
2018-11-26T05:38:15.841Z,26.08
2018-11-26T05:40:42.484Z,26.15
2018-11-26T05:43:09.120Z,26.08
2018-11-26T05:45:35.773Z,26.08
2018-11-26T05:48:02.487Z,26.33
2018-11-26T05:50:29.119Z,26.37
2018-11-26T05:52:55.761Z,26.18
2018-11-26T05:55:22.414Z,26.36
2018-11-26T05:57:49.049Z,26.48
2018-11-26T06:00:15.746Z,26.53
2018-11-26T06:02:42.390Z,26.56
2018-11-26T06:05:09.031Z,26.57
2018-11-26T06:07:35.685Z,26.62
2018-11-26T06:10:02.337Z,26.57
2018-11-26T06:12:28.988Z,26.52
2018-11-26T06:14:55.628Z,26.46
2018-11-26T06:17:22.323Z,26.39
2018-11-26T06:19:49.013Z,26.44
2018-11-26T06:22:15.661Z,26.51
2018-11-26T06:24:42.315Z,26.71
2018-11-26T06:27:08.960Z,26.65
2018-11-26T06:29:35.629Z,26.81
2018-11-26T06:32:02.268Z,26.80
2018-11-26T06:34:28.975Z,26.61
2018-11-26T06:36:55.613Z,26.50
2018-11-26T06:39:22.261Z,26.69
2018-11-26T06:41:48.941Z,26.78
2018-11-26T06:44:15.580Z,26.71
2018-11-26T06:46:42.231Z,26.76
2018-11-26T06:49:08.886Z,26.77
2018-11-26T06:51:35.532Z,26.66
2018-11-26T06:54:02.342Z,26.61
2018-11-26T06:56:28.984Z,26.90
2018-11-26T06:58:55.631Z,27.10
2018-11-26T07:01:22.419Z,26.93
2018-11-26T07:03:49.067Z,26.87
2018-11-26T07:06:15.727Z,27.80
2018-11-26T07:08:42.362Z,27.02
2018-11-26T07:11:09.048Z,27.20
2018-11-26T07:13:35.757Z,27.15
2018-11-26T07:16:02.411Z,27.08
2018-11-26T07:18:29.125Z,27.15
2018-11-26T07:20:55.768Z,27.20
2018-11-26T07:23:22.502Z,27.04
2018-11-26T07:25:49.195Z,26.99
2018-11-26T07:28:15.846Z,27.10
2018-11-26T07:30:42.484Z,27.30
2018-11-26T07:33:09.185Z,27.13
2018-11-26T07:35:35.840Z,27.14
2018-11-26T07:38:02.536Z,26.95
2018-11-26T07:40:29.178Z,26.87
2018-11-26T07:42:55.838Z,26.79
2018-11-26T07:45:22.483Z,26.53
2018-11-26T07:47:49.142Z,26.57
2018-11-26T07:50:15.803Z,26.48
2018-11-26T07:52:42.440Z,26.30
2018-11-26T07:55:10.425Z,26.05
2018-11-26T07:57:35.803Z,26.10
2018-11-26T08:00:02.511Z,25.76
2018-11-26T08:02:29.328Z,25.95
2018-11-26T08:04:55.976Z,25.76
2018-11-26T08:07:22.691Z,25.72
2018-11-26T08:09:49.809Z,26.02
2018-11-26T08:12:16.918Z,26.18
2018-11-26T08:14:43.585Z,26.43
2018-11-26T08:17:10.248Z,26.40
2018-11-26T08:19:39.240Z,26.14
2018-11-26T08:22:05.892Z,25.97
2018-11-26T08:24:32.527Z,25.81
2018-11-26T08:26:59.218Z,25.96
2018-11-26T08:29:25.963Z,25.92
2018-11-26T08:31:52.656Z,25.76
2018-11-26T08:34:20.349Z,26.07
2018-11-26T08:36:47.059Z,25.99
2018-11-26T08:39:13.747Z,25.96
2018-11-26T08:41:40.392Z,25.94
2018-11-26T08:44:09.573Z,25.98
2018-11-26T08:46:33.712Z,25.88
2018-11-26T08:49:00.361Z,26.01
2018-11-26T08:51:27.042Z,26.05
2018-11-26T08:53:53.762Z,26.23
2018-11-26T08:56:20.485Z,26.17
2018-11-26T08:58:47.130Z,26.38
2018-11-26T09:01:13.808Z,26.49
2018-11-26T09:03:40.478Z,26.56
2018-11-26T09:06:08.250Z,26.74
2018-11-26T09:08:34.908Z,27.02
2018-11-26T09:11:01.579Z,26.82
2018-11-26T09:13:28.236Z,26.75
2018-11-26T09:15:54.980Z,26.78
2018-11-26T09:18:21.628Z,26.92
2018-11-26T09:20:48.337Z,26.96
2018-11-26T09:23:15.018Z,26.98
2018-11-26T09:25:41.668Z,27.21
2018-11-26T09:28:08.316Z,27.11
2018-11-26T09:30:34.996Z,27.21
2018-11-26T09:33:01.732Z,27.21
2018-11-26T09:35:28.449Z,27.40
2018-11-26T09:37:55.096Z,27.23
2018-11-26T09:40:21.734Z,27.08
2018-11-26T09:42:48.390Z,27.00
2018-11-26T09:45:16.075Z,26.96
2018-11-26T09:47:42.949Z,27.07
2018-11-26T09:50:09.669Z,26.96
2018-11-26T09:52:36.318Z,27.31
2018-11-26T09:55:02.967Z,27.40
2018-11-26T09:57:29.630Z,27.22
2018-11-26T09:59:56.270Z,26.99
2018-11-26T10:02:22.965Z,27.32
2018-11-26T10:04:49.737Z,27.36
2018-11-26T10:07:16.434Z,27.34
2018-11-26T10:09:43.070Z,27.36
2018-11-26T10:12:09.712Z,27.45
2018-11-26T10:14:36.415Z,27.28
2018-11-26T10:17:03.100Z,27.48
2018-11-26T10:19:29.752Z,27.40
2018-11-26T10:21:56.392Z,27.32
2018-11-26T10:24:23.114Z,27.50
2018-11-26T10:26:49.749Z,28.08
2018-11-26T10:29:18.061Z,28.21
2018-11-26T10:31:43.057Z,27.78
2018-11-26T10:34:09.705Z,27.88
2018-11-26T10:36:36.351Z,27.76
2018-11-26T10:39:03.062Z,27.99
2018-11-26T10:41:29.766Z,27.72
2018-11-26T10:43:56.408Z,27.88
2018-11-26T10:46:23.114Z,27.82
2018-11-26T10:48:49.854Z,27.96
2018-11-26T10:51:16.536Z,27.79
2018-11-26T10:53:43.193Z,27.86
2018-11-26T10:56:09.902Z,27.77
2018-11-26T10:58:36.553Z,27.78
2018-11-26T11:01:03.313Z,27.86
2018-11-26T11:03:29.958Z,27.99
2018-11-26T11:05:56.668Z,27.81
2018-11-26T11:08:23.846Z,27.98
2018-11-26T11:10:50.006Z,27.84
2018-11-26T11:13:16.644Z,27.99
2018-11-26T11:15:43.340Z,28.12
2018-11-26T11:18:09.977Z,28.13
2018-11-26T11:20:36.619Z,28.09
2018-11-26T11:23:03.444Z,27.92
2018-11-26T11:25:30.290Z,28.34
2018-11-26T11:27:56.983Z,27.98
2018-11-26T11:30:23.653Z,28.17
2018-11-26T11:32:50.539Z,28.65
2018-11-26T11:35:17.180Z,28.97
2018-11-26T11:37:43.833Z,29.05
2018-11-26T11:40:10.511Z,29.10
2018-11-26T11:42:37.178Z,29.04
2018-11-26T11:45:03.926Z,28.92
2018-11-26T11:47:30.741Z,28.97
2018-11-26T11:49:57.442Z,28.69
2018-11-26T11:52:24.202Z,28.70
2018-11-26T11:54:50.898Z,28.99
2018-11-26T11:57:17.698Z,29.19
2018-11-26T11:59:44.352Z,28.89
2018-11-26T12:02:16.029Z,29.19
2018-11-26T12:04:38.830Z,29.11
2018-11-26T12:07:05.494Z,29.12
2018-11-26T12:09:32.193Z,29.09
2018-11-26T12:11:58.844Z,29.02
2018-11-26T12:14:25.611Z,28.69
2018-11-26T12:16:52.324Z,28.84
2018-11-26T12:19:18.999Z,29.03
2018-11-26T12:21:45.807Z,28.91
2018-11-26T12:24:12.537Z,29.12
2018-11-26T12:26:39.182Z,28.94
2018-11-26T12:29:05.885Z,28.94
2018-11-26T12:31:32.523Z,29.20
2018-11-26T12:34:02.168Z,29.17
2018-11-26T12:36:28.839Z,29.14
2018-11-26T12:38:55.478Z,29.34
2018-11-26T12:41:22.208Z,29.20
2018-11-26T12:43:48.850Z,29.28
2018-11-26T12:46:15.561Z,29.31
2018-11-26T12:48:42.237Z,29.48
2018-11-26T12:51:11.399Z,29.40
2018-11-26T12:53:38.124Z,29.45
2018-11-26T12:56:04.775Z,29.57
2018-11-26T12:58:31.518Z,29.48
2018-11-26T13:00:58.192Z,29.53
2018-11-26T13:03:24.882Z,29.38
2018-11-26T13:05:51.530Z,29.68
2018-11-26T13:08:18.187Z,29.65
2018-11-26T13:10:44.869Z,29.62
2018-11-26T13:13:11.521Z,29.76
2018-11-26T13:15:38.303Z,29.73
2018-11-26T13:18:04.984Z,29.96
2018-11-26T13:20:31.767Z,30.02
2018-11-26T13:22:58.477Z,29.88
2018-11-26T13:25:25.258Z,29.86
2018-11-26T13:27:52.080Z,29.80
2018-11-26T13:30:18.822Z,29.86
2018-11-26T13:32:45.565Z,29.78
2018-11-26T13:35:12.220Z,29.88
2018-11-26T13:37:38.907Z,29.96
2018-11-26T13:40:05.613Z,29.79
2018-11-26T13:42:35.091Z,30.29
2018-11-26T13:45:01.800Z,30.05
2018-11-26T13:47:28.499Z,29.93
2018-11-26T13:49:55.952Z,29.94
2018-11-26T13:52:22.590Z,30.05
2018-11-26T13:54:49.721Z,30.04
2018-11-26T13:57:16.433Z,30.22
2018-11-26T13:59:43.115Z,30.22
2018-11-26T14:02:09.770Z,30.07
2018-11-26T14:04:38.624Z,29.97
2018-11-26T14:07:05.280Z,30.23
2018-11-26T14:09:31.982Z,29.80
2018-11-26T14:11:58.625Z,30.13
2018-11-26T14:14:25.290Z,30.11
2018-11-26T14:16:51.950Z,30.11
2018-11-26T14:19:18.695Z,30.10
2018-11-26T14:21:45.480Z,30.25
2018-11-26T14:24:12.196Z,30.48
2018-11-26T14:26:38.960Z,30.67
2018-11-26T14:29:06.116Z,30.82
2018-11-26T14:31:32.849Z,30.88
2018-11-26T14:34:01.953Z,30.79
2018-11-26T14:36:28.664Z,30.51
2018-11-26T14:38:55.389Z,30.08
2018-11-26T14:41:22.165Z,30.33
2018-11-26T14:43:48.924Z,30.07
2018-11-26T14:46:15.580Z,30.29
2018-11-26T14:48:42.279Z,30.11
2018-11-26T14:51:08.921Z,30.04
2018-11-26T14:53:35.647Z,30.15
2018-11-26T14:56:02.345Z,30.27
2018-11-26T14:58:29.019Z,30.34
2018-11-26T15:00:55.702Z,30.36
2018-11-26T15:03:22.358Z,30.46
2018-11-26T15:05:49.017Z,30.45
2018-11-26T15:08:15.691Z,30.37
2018-11-26T15:10:42.384Z,30.32
2018-11-26T15:13:09.113Z,30.19
2018-11-26T15:15:36.386Z,30.12
2018-11-26T15:18:04.092Z,29.84
2018-11-26T15:20:30.746Z,30.05
2018-11-26T15:22:57.484Z,30.14
2018-11-26T15:25:24.153Z,30.01
2018-11-26T15:27:51.314Z,30.16
2018-11-26T15:30:17.962Z,29.92
2018-11-26T15:32:44.658Z,29.96
2018-11-26T15:35:11.491Z,30.02
2018-11-26T15:37:38.818Z,29.90
2018-11-26T15:40:05.493Z,29.86
2018-11-26T15:42:32.156Z,29.83
2018-11-26T15:44:58.870Z,29.91
2018-11-26T15:47:25.532Z,30.03
2018-11-26T15:49:52.227Z,30.01
2018-11-26T15:52:18.890Z,30.00
2018-11-26T15:54:46.582Z,30.00
2018-11-26T15:57:12.640Z,29.99
2018-11-26T15:59:39.384Z,29.93
2018-11-26T16:02:06.014Z,29.97
2018-11-26T16:04:32.660Z,29.84
2018-11-26T16:06:59.317Z,29.89
2018-11-26T16:09:26.134Z,29.95
2018-11-26T16:11:52.812Z,29.89
2018-11-26T16:14:19.544Z,29.94
2018-11-26T16:16:46.181Z,29.92
2018-11-26T16:19:12.823Z,29.86
2018-11-26T16:21:39.492Z,29.66
2018-11-26T16:24:06.135Z,29.81
2018-11-26T16:26:32.797Z,29.73
2018-11-26T16:29:00.285Z,29.79
2018-11-26T16:31:26.998Z,29.55
2018-11-26T16:33:53.672Z,29.52
2018-11-26T16:36:20.378Z,29.50
2018-11-26T16:38:47.020Z,29.31
2018-11-26T16:41:13.676Z,29.73
2018-11-26T16:43:40.326Z,29.71
2018-11-26T16:46:07.030Z,29.74
2018-11-26T16:48:33.749Z,29.70
2018-11-26T16:51:00.510Z,29.82
2018-11-26T16:53:27.167Z,29.55
2018-11-26T16:55:53.823Z,29.63
2018-11-26T16:58:20.501Z,29.54
2018-11-26T17:00:47.163Z,29.47
2018-11-26T17:03:13.848Z,29.32
2018-11-26T17:05:40.505Z,29.38
2018-11-26T17:08:07.152Z,29.35
2018-11-26T17:10:33.872Z,29.35
2018-11-26T17:13:01.863Z,29.29
2018-11-26T17:15:27.163Z,29.25
2018-11-26T17:17:56.648Z,29.24
2018-11-26T17:20:23.340Z,29.28
2018-11-26T17:22:50.005Z,29.18
2018-11-26T17:25:16.651Z,29.16
2018-11-26T17:27:43.376Z,29.20
2018-11-26T17:30:10.052Z,29.15
2018-11-26T17:32:36.706Z,29.10
2018-11-26T17:35:03.372Z,29.04
2018-11-26T17:37:30.019Z,29.07
2018-11-26T17:39:56.663Z,29.05
2018-11-26T17:42:23.383Z,28.98
2018-11-26T17:44:50.035Z,29.04
2018-11-26T17:47:16.694Z,29.02
2018-11-26T17:49:43.348Z,29.01
2018-11-26T17:52:10.056Z,29.00
2018-11-26T17:54:36.724Z,29.02
2018-11-26T17:57:03.365Z,29.03
2018-11-26T17:59:30.102Z,29.02
2018-11-26T18:01:56.739Z,28.99
2018-11-26T18:04:23.379Z,29.01
2018-11-26T18:06:50.050Z,28.97
2018-11-26T18:09:16.724Z,28.95
2018-11-26T18:11:43.365Z,28.95
2018-11-26T18:14:10.083Z,28.90
2018-11-26T18:16:36.718Z,28.99
2018-11-26T18:19:03.451Z,28.93
2018-11-26T18:21:30.102Z,28.92
2018-11-26T18:23:56.769Z,28.87
2018-11-26T18:26:23.415Z,28.82
2018-11-26T18:28:50.078Z,28.79
2018-11-26T18:31:16.779Z,28.82
2018-11-26T18:33:43.439Z,28.82
2018-11-26T18:36:10.130Z,28.92
2018-11-26T18:38:36.880Z,28.93
2018-11-26T18:41:03.576Z,28.84
2018-11-26T18:43:30.219Z,28.79
2018-11-26T18:45:56.991Z,28.87
2018-11-26T18:48:23.693Z,28.94
2018-11-26T18:50:50.347Z,28.91
2018-11-26T18:53:17.049Z,28.92
2018-11-26T18:55:43.748Z,28.92
2018-11-26T18:58:10.418Z,28.81
2018-11-26T19:00:37.055Z,28.90
2018-11-26T19:03:03.757Z,28.88
2018-11-26T19:05:30.427Z,28.87
2018-11-26T19:07:57.062Z,28.92
2018-11-26T19:10:23.720Z,28.88
2018-11-26T19:12:50.348Z,28.88
2018-11-26T19:15:17.164Z,28.83
2018-11-26T19:17:44.462Z,28.86
2018-11-26T19:20:11.106Z,28.81
2018-11-26T19:22:37.785Z,28.84
2018-11-26T19:25:04.433Z,28.87
2018-11-26T19:27:31.077Z,28.75
2018-11-26T19:29:57.722Z,28.77
2018-11-26T19:32:24.377Z,28.97
2018-11-26T19:34:51.086Z,28.88
2018-11-26T19:37:17.738Z,28.80
2018-11-26T19:39:44.394Z,28.89
2018-11-26T19:42:11.044Z,28.84
2018-11-26T19:44:37.718Z,28.90
2018-11-26T19:47:04.436Z,28.86
2018-11-26T19:49:31.086Z,28.92
2018-11-26T19:51:57.741Z,29.00
2018-11-26T19:54:24.390Z,28.97
2018-11-26T19:56:51.059Z,28.96
2018-11-26T19:59:17.801Z,29.09
2018-11-26T20:01:44.529Z,29.05
2018-11-26T20:04:11.170Z,29.05
2018-11-26T20:06:37.826Z,29.09
2018-11-26T20:09:04.527Z,29.08
2018-11-26T20:11:33.314Z,29.07
2018-11-26T20:13:57.920Z,29.17
2018-11-26T20:16:24.627Z,29.18
2018-11-26T20:18:51.289Z,29.10
2018-11-26T20:21:17.997Z,29.07
2018-11-26T20:23:44.657Z,29.15
2018-11-26T20:26:11.310Z,29.17
2018-11-26T20:28:37.963Z,29.14
2018-11-26T20:31:04.717Z,29.13
2018-11-26T20:33:31.365Z,29.19
2018-11-26T20:35:58.003Z,29.16
2018-11-26T20:38:24.660Z,29.15
2018-11-26T20:40:51.304Z,29.19
2018-11-26T20:43:18.981Z,29.13
2018-11-26T20:45:45.639Z,29.23
2018-11-26T20:48:12.313Z,29.21
2018-11-26T20:50:39.084Z,29.25
2018-11-26T20:53:05.729Z,29.20
2018-11-26T20:55:32.386Z,29.33
2018-11-26T20:57:59.042Z,29.24
2018-11-26T21:00:25.686Z,29.28
2018-11-26T21:02:52.371Z,29.23
2018-11-26T21:05:19.010Z,29.31
2018-11-26T21:07:45.673Z,29.25
2018-11-26T21:10:12.324Z,29.31
2018-11-26T21:12:38.989Z,29.31
2018-11-26T21:15:05.651Z,29.31
2018-11-26T21:17:32.328Z,29.33
2018-11-26T21:19:58.971Z,29.25
2018-11-26T21:22:25.684Z,29.26
2018-11-26T21:24:52.318Z,29.31
2018-11-26T21:27:18.953Z,29.25
2018-11-26T21:29:48.380Z,29.21
2018-11-26T21:32:15.025Z,29.11
2018-11-26T21:34:41.683Z,29.06
2018-11-26T21:37:08.321Z,28.98
2018-11-26T21:39:35.009Z,28.96
2018-11-26T21:42:01.677Z,28.89
2018-11-26T21:44:28.312Z,28.90
2018-11-26T21:46:54.958Z,28.90
2018-11-26T21:49:21.622Z,28.73
2018-11-26T21:51:48.266Z,28.75
2018-11-26T21:54:15.046Z,28.71
2018-11-26T21:56:41.685Z,28.69
2018-11-26T21:59:08.322Z,28.64
2018-11-26T22:01:34.973Z,28.58
2018-11-26T22:04:01.617Z,28.66
2018-11-26T22:06:28.264Z,28.63
2018-11-26T22:08:54.916Z,28.65
2018-11-26T22:11:21.567Z,28.63
2018-11-26T22:13:48.275Z,28.64
2018-11-26T22:16:15.205Z,28.69
2018-11-26T22:18:41.855Z,28.68
2018-11-26T22:21:08.504Z,28.68
2018-11-26T22:23:35.160Z,28.64
2018-11-26T22:26:01.817Z,28.71
2018-11-26T22:28:28.476Z,28.70
2018-11-26T22:30:55.121Z,28.71
2018-11-26T22:33:21.770Z,28.88
2018-11-26T22:35:48.410Z,28.46
2018-11-26T22:38:15.170Z,28.98
2018-11-26T22:40:41.819Z,29.09
2018-11-26T22:43:08.474Z,29.13
2018-11-26T22:45:35.115Z,29.00
2018-11-26T22:48:01.759Z,28.99
2018-11-26T22:50:28.413Z,29.01
2018-11-26T22:52:55.156Z,29.05
2018-11-26T22:55:22.540Z,29.03
2018-11-26T22:57:48.443Z,29.03
2018-11-26T23:00:15.099Z,29.02
2018-11-26T23:02:41.744Z,29.03
2018-11-26T23:05:08.413Z,29.10
2018-11-26T23:07:35.052Z,29.22
2018-11-26T23:10:01.693Z,29.24
2018-11-26T23:12:28.337Z,29.19
2018-11-26T23:14:54.996Z,29.29
2018-11-26T23:17:21.637Z,29.40
2018-11-26T23:19:48.305Z,29.35
2018-11-26T23:22:14.948Z,29.33
2018-11-26T23:24:41.649Z,29.44
2018-11-26T23:27:08.295Z,29.45
2018-11-26T23:29:34.927Z,29.51
2018-11-26T23:32:01.591Z,29.52
2018-11-26T23:34:28.286Z,29.52
2018-11-26T23:36:54.948Z,29.45
2018-11-26T23:39:21.589Z,29.42
2018-11-26T23:41:48.232Z,29.38
2018-11-26T23:44:14.891Z,29.46
2018-11-26T23:46:41.545Z,29.40
2018-11-26T23:49:08.201Z,29.37
2018-11-26T23:51:34.847Z,29.36
2018-11-26T23:54:01.491Z,29.34
2018-11-26T23:56:28.140Z,29.31
2018-11-26T23:58:54.793Z,29.38
